aviador You're here:

ZSSS Decoded Metar

SHANGHAI in CHINA
Report Time2017-04-29 17:30:00
UTC Time2017-04-29 17:46:06
Flight Rules vfr VFR
Wind160° at 6 kt
W.Decomp.*RWY 18: 5.8 kt HW 1.6 kt LCW
W.Rank160° ranks 15
Current wind is below 160° avg. (7.5)
Visibility9999 m
Phenomena:N/A
Clouds:N/A
Expected CloudBase > 4,400 ft AGL from Temp-Dew spread
CeilingNone
Temp19°C (ISA +4)
Dew Point08°C (49% RH)
AAT16.4°C
QNH1010 hPa
Density Alt745 ft
Elevation23 ft
Report Wrong Elevation
Raw Report
ZSSS 291730Z 16003MPS CAVOK 19/08 Q1010 NOSIG=

Extra information for ZSSS:More info

Metar Taf Metar & Taf Last 4 Metars F.Rules Stats Wind Profile Meteogram Temp Stats Airport Information Weather charts Add Link Nearby VenuesMetar ALERT Operation Metar Decoded Social comments